Terminal Aerodrome Forecast
Issued by NWS

Home | Current Version | Previous Version | Text Only | Print | Product List | Glossary Off
Versions: 1 2 3 4 5 6 7 8 9 10 11 12 13 14 15 16 17 18 19 20 21 22 23 24 25 26

332
FTUS43 KLOT 201730
TAFORD
TAF
KORD 201730Z 2018/2124 01008KT P6SM BKN020
     FM202100 02012KT P6SM SCT035 BKN060
     FM210400 02008KT P6SM BKN120
     FM211100 35010KT P6SM SCT120
     FM211800 02012KT P6SM SCT150=

USA.gov is the U.S. government's official web portal to all federal, state and local government web resources and services.